Time;durP1;ratioP1;P1;durP2;ratioP2;P2;SDS_P1;SDS_P2;PMS_P1;PMS_P2;Temp;Humidity;BMP_temperature;BMP_pressure;BME280_temperature;BME280_humidity;BME280_pressure;Samples;Min_cycle;Max_cycle;Signal;HPM_P1;HPM_P2
2022/12/03 00:00:25;;;;;;;81.12;29.65;;;;;;;-0.10;100.00;99782.59;2256376;79;21012;-58
2022/12/03 00:03:29;;;;;;;89.50;32.08;;;;;;;-0.14;100.00;99783.46;2229338;79;20965;-58
2022/12/03 00:06:30;;;;;;;88.27;32.95;;;;;;;-0.19;100.00;99786.05;2256424;79;21478;-59
2022/12/03 00:09:32;;;;;;;84.07;30.85;;;;;;;-0.15;100.00;99783.91;2256474;79;21055;-58
2022/12/03 00:12:33;;;;;;;86.27;31.97;;;;;;;-0.09;100.00;99780.02;2256359;79;21500;-58
2022/12/03 00:15:35;;;;;;;85.43;32.77;;;;;;;-0.13;100.00;99785.19;2252850;79;21083;-58
2022/12/03 00:18:36;;;;;;;85.53;30.27;;;;;;;-0.21;100.00;99780.06;2249018;79;21040;-58
2022/12/03 00:21:38;;;;;;;80.45;31.48;;;;;;;-0.16;100.00;99785.20;2249149;79;21057;-58
2022/12/03 00:24:40;;;;;;;89.87;31.33;;;;;;;-0.05;100.00;99789.47;2249166;79;21029;-58
2022/12/03 00:27:41;;;;;;;91.67;30.72;;;;;;;-0.01;100.00;99788.59;2249153;79;21018;-58
2022/12/03 00:30:42;;;;;;;85.05;31.55;;;;;;;-0.05;100.00;99790.75;2249023;79;21052;-58
2022/12/03 00:33:44;;;;;;;86.02;32.38;;;;;;;-0.07;100.00;99788.63;2249086;79;21092;-58
2022/12/03 00:36:45;;;;;;;84.83;32.48;;;;;;;0.00;100.00;99793.34;2249229;79;21096;-58
2022/12/03 00:39:47;;;;;;;89.80;31.83;;;;;;;0.08;100.00;99789.45;2249554;79;21559;-58
2022/12/03 00:42:48;;;;;;;90.97;31.57;;;;;;;0.00;100.00;99786.90;2248966;79;21249;-58
2022/12/03 00:45:50;;;;;;;82.88;31.40;;;;;;;0.13;100.00;99784.70;2249144;79;21483;-59
2022/12/03 00:48:52;;;;;;;86.45;31.40;;;;;;;-0.02;100.00;99787.31;2249159;79;21017;-58
2022/12/03 00:51:53;;;;;;;87.78;31.85;;;;;;;-0.06;100.00;99783.90;2249033;79;21495;-58
2022/12/03 00:54:55;;;;;;;95.57;35.65;;;;;;;0.05;100.00;99783.86;2249239;79;21025;-58
2022/12/03 00:57:56;;;;;;;105.43;36.40;;;;;;;0.02;100.00;99783.87;2249178;79;21056;-59
2022/12/03 01:00:57;;;;;;;96.00;33.92;;;;;;;0.04;100.00;99779.99;2249279;79;21084;-58
2022/12/03 01:03:59;;;;;;;93.37;33.90;;;;;;;0.10;100.00;99783.42;2249174;79;21033;-58
2022/12/03 01:07:00;;;;;;;94.52;32.90;;;;;;;0.11;100.00;99784.27;2249328;79;21524;-58
2022/12/03 01:10:02;;;;;;;89.90;31.73;;;;;;;0.03;100.00;99779.56;2249207;79;21056;-58
2022/12/03 01:13:03;;;;;;;86.92;32.53;;;;;;;0.02;100.00;99777.42;2249175;79;21504;-59
2022/12/03 01:16:05;;;;;;;98.82;35.33;;;;;;;0.04;100.00;99773.09;2252667;79;21043;-58
2022/12/03 01:19:06;;;;;;;88.75;32.83;;;;;;;0.02;100.00;99772.27;2256380;79;21056;-58
2022/12/03 01:25:46;;;;;;;84.05;31.97;;;;;;;0.03;100.00;99773.11;2256552;79;21059;-58
2022/12/03 01:28:47;;;;;;;93.37;32.17;;;;;;;-0.02;100.00;99767.97;2256096;79;21103;-58
2022/12/03 01:34:52;;;;;;;92.70;33.25;;;;;;;-0.05;100.00;99764.96;2229652;79;20973;-58
2022/12/03 01:37:56;;;;;;;84.03;31.37;;;;;;;-0.05;100.00;99766.25;2256549;79;20985;-58
2022/12/03 01:40:57;;;;;;;85.45;30.50;;;;;;;-0.03;100.00;99763.25;2229911;79;21022;-58
2022/12/03 01:43:58;;;;;;;91.57;32.35;;;;;;;0.05;100.00;99763.22;2256344;79;20980;-58
2022/12/03 01:47:00;;;;;;;95.32;32.80;;;;;;;-0.02;100.00;99761.52;2256406;79;21068;-58
2022/12/03 01:50:01;;;;;;;96.65;33.75;;;;;;;0.14;100.00;99772.23;2256251;79;21059;-59
2022/12/03 01:53:03;;;;;;;95.28;32.67;;;;;;;0.13;100.00;99761.48;2256546;79;21132;-58
2022/12/03 01:56:05;;;;;;;87.88;33.05;;;;;;;0.00;100.00;99767.55;2256397;79;21108;-59
2022/12/03 01:59:06;;;;;;;90.65;33.38;;;;;;;0.06;100.00;99767.52;2256466;79;21061;-58
2022/12/03 02:02:08;;;;;;;85.83;31.68;;;;;;;0.08;100.00;99771.39;2256202;79;21090;-58
2022/12/03 02:05:09;;;;;;;88.65;32.63;;;;;;;0.15;100.00;99771.80;2256368;79;21037;-58
2022/12/03 02:08:11;;;;;;;90.28;32.08;;;;;;;0.25;100.00;99766.17;2256163;79;21058;-58
2022/12/03 02:11:12;;;;;;;91.55;33.38;;;;;;;0.38;100.00;99770.41;2256345;79;21514;-58
2022/12/03 02:14:14;;;;;;;88.40;33.00;;;;;;;0.41;100.00;99770.83;2256192;79;21061;-58
2022/12/03 02:17:15;;;;;;;93.37;33.13;;;;;;;0.37;100.00;99762.67;2255987;79;21536;-58
2022/12/03 02:20:17;;;;;;;89.62;33.13;;;;;;;0.57;100.00;99754.83;2256241;79;21091;-58
2022/12/03 02:23:18;;;;;;;88.80;32.60;;;;;;;0.61;100.00;99756.53;2256240;79;21024;-58
2022/12/03 02:26:20;;;;;;;88.70;33.63;;;;;;;0.61;100.00;99752.22;2256356;79;21025;-58
2022/12/03 02:29:22;;;;;;;92.50;33.30;;;;;;;0.63;100.00;99747.05;2256728;79;21087;-58
2022/12/03 02:32:23;;;;;;;94.42;37.75;;;;;;;0.48;100.00;99746.27;2256427;79;21036;-58
2022/12/03 02:35:24;;;;;;;89.65;35.45;;;;;;;0.39;100.00;99745.44;2256376;79;21009;-58
2022/12/03 02:38:26;;;;;;;95.72;35.38;;;;;;;0.20;100.00;99740.36;2256573;79;21075;-58
2022/12/03 02:44:30;;;;;;;93.47;32.53;;;;;;;0.36;100.00;99738.59;2229556;79;20977;-58
2022/12/03 02:47:32;;;;;;;91.15;32.65;;;;;;;0.32;100.00;99740.32;2256290;79;21124;-58
2022/12/03 02:50:33;;;;;;;85.30;31.75;;;;;;;0.31;100.00;99746.34;2256348;79;21012;-59
2022/12/03 02:53:35;;;;;;;86.17;31.45;;;;;;;0.14;100.00;99749.42;2256422;79;21495;-59
2022/12/03 02:56:36;;;;;;;87.75;30.95;;;;;;;0.33;100.00;99750.20;2256328;79;21017;-58
2022/12/03 02:59:38;;;;;;;82.25;31.48;;;;;;;0.36;100.00;99751.91;2256182;79;21585;-58
2022/12/03 03:02:39;;;;;;;86.17;32.35;;;;;;;0.36;100.00;99746.75;2256273;79;21045;-59
2022/12/03 03:05:41;;;;;;;94.13;34.67;;;;;;;0.39;100.00;99751.89;2256164;79;21502;-59
2022/12/03 03:08:43;;;;;;;87.15;32.25;;;;;;;0.36;100.00;99750.21;2256267;79;21088;-58
2022/12/03 03:11:44;;;;;;;89.92;32.93;;;;;;;0.43;100.00;99743.27;2256133;79;21016;-58
2022/12/03 03:14:45;;;;;;;92.95;33.85;;;;;;;0.32;100.00;99740.32;2256217;79;21107;-59
2022/12/03 03:17:47;;;;;;;96.37;32.13;;;;;;;0.36;100.00;99737.72;2256023;79;21060;-58
2022/12/03 03:20:48;;;;;;;82.57;31.95;;;;;;;0.25;100.00;99742.50;2256438;79;21496;-58
2022/12/03 03:23:50;;;;;;;81.75;31.50;;;;;;;0.27;100.00;99740.76;2256159;79;21013;-58
2022/12/03 03:26:51;;;;;;;83.30;30.85;;;;;;;0.24;100.00;99740.78;2256534;79;21495;-58
2022/12/03 03:29:52;;;;;;;85.55;30.82;;;;;;;0.18;100.00;99745.97;2256237;79;21008;-58
2022/12/03 03:32:54;;;;;;;78.42;30.97;;;;;;;0.22;100.00;99748.97;2256156;79;21021;-58
2022/12/03 03:35:55;;;;;;;82.17;31.27;;;;;;;0.25;100.00;99752.83;2256310;79;21032;-59
2022/12/03 03:38:57;;;;;;;86.12;32.88;;;;;;;0.23;100.00;99742.08;2256068;79;21019;-58
2022/12/03 03:41:59;;;;;;;90.62;32.60;;;;;;;0.34;100.00;99745.47;2255991;79;21621;-58
2022/12/03 03:45:00;;;;;;;91.60;32.70;;;;;;;0.36;100.00;99751.50;2256391;79;21072;-58
2022/12/03 03:48:02;;;;;;;89.10;33.38;;;;;;;0.47;100.00;99766.48;2256246;79;21321;-58
2022/12/03 03:51:07;;;;;;;92.80;35.00;;;;;;;0.60;100.00;99760.82;2256372;79;21064;-58
2022/12/03 03:54:06;;;;;;;85.90;31.65;;;;;;;0.66;100.00;99759.52;2229545;79;20985;-58
2022/12/03 03:57:08;;;;;;;93.60;33.05;;;;;;;0.76;100.00;99756.45;2256248;79;22237;-58
2022/12/03 04:00:09;;;;;;;88.55;32.88;;;;;;;0.77;100.00;99749.11;2256409;79;21021;-59
2022/12/03 04:03:11;;;;;;;90.77;34.50;;;;;;;0.71;100.00;99745.28;2256235;79;21021;-58
2022/12/03 04:06:12;;;;;;;89.22;33.63;;;;;;;0.71;100.00;99742.70;2256537;79;21025;-58
2022/12/03 04:09:13;;;;;;;90.92;32.93;;;;;;;0.71;100.00;99745.73;2256075;79;21084;-59
2022/12/03 04:15:18;;;;;;;97.70;34.90;;;;;;;0.79;100.00;99737.47;2229563;79;21004;-58
2022/12/03 04:24:26;;;;;;;92.85;34.05;;;;;;;0.94;100.00;99734.80;2220314;79;21032;-58
2022/12/03 04:30:31;;;;;;;92.02;33.13;;;;;;;0.88;100.00;99737.43;2220499;79;20999;-59
2022/12/03 04:36:36;;;;;;;88.45;32.33;;;;;;;0.71;100.00;99729.78;2220624;79;21531;-58
2022/12/03 04:39:37;;;;;;;91.00;34.35;;;;;;;0.62;100.00;99733.28;2249008;79;21065;-59
2022/12/03 04:42:39;;;;;;;96.82;33.83;;;;;;;0.63;100.00;99736.30;2249210;79;21543;-58
2022/12/03 04:45:40;;;;;;;90.75;33.70;;;;;;;0.66;100.00;99744.02;2249355;79;21021;-59
2022/12/03 04:48:42;;;;;;;96.82;34.67;;;;;;;0.76;100.00;99741.37;2249590;79;21040;-58
2022/12/03 04:51:43;;;;;;;96.32;33.25;;;;;;;0.89;100.00;99748.19;2249332;79;21040;-58
2022/12/03 04:54:44;;;;;;;87.60;32.88;;;;;;;0.99;100.00;99742.09;2249215;79;21033;-58
2022/12/03 04:57:46;;;;;;;89.77;34.33;;;;;;;1.07;100.00;99743.76;2249446;79;21121;-59
2022/12/03 05:00:47;;;;;;;98.37;33.50;;;;;;;1.18;100.00;99741.50;2249169;79;21020;-58
2022/12/03 05:03:49;;;;;;;92.57;32.55;;;;;;;1.16;100.00;99741.93;2249465;79;21084;-58
2022/12/03 05:06:51;;;;;;;96.80;35.30;;;;;;;1.25;100.00;99746.20;2249207;79;21025;-58
2022/12/03 05:09:52;;;;;;;91.97;34.18;;;;;;;1.25;100.00;99745.32;2249480;79;21523;-58
2022/12/03 05:12:54;;;;;;;95.20;34.80;;;;;;;1.40;100.00;99745.64;2249190;79;21020;-58
2022/12/03 05:15:55;;;;;;;98.93;33.47;;;;;;;1.44;100.00;99748.18;2249664;79;21890;-58
2022/12/03 05:18:57;;;;;;;102.63;36.53;;;;;;;1.63;100.00;99750.59;2249088;79;21055;-58
2022/12/03 05:21:59;;;;;;;101.27;35.60;;;;;;;1.71;100.00;99750.06;2249357;79;21489;-59
2022/12/03 05:25:00;;;;;;;92.35;34.75;;;;;;;1.63;100.00;99755.77;2249299;79;21013;-58
2022/12/03 05:28:01;;;;;;;93.20;33.83;;;;;;;1.58;100.00;99746.77;2249185;79;21085;-58
2022/12/03 05:31:03;;;;;;;92.22;35.83;;;;;;;1.37;100.00;99747.81;2249044;79;21099;-58
2022/12/03 05:34:05;;;;;;;90.20;32.17;;;;;;;1.37;100.00;99746.52;2249465;79;21048;-58
2022/12/03 05:37:06;;;;;;;91.75;34.10;;;;;;;1.29;100.00;99740.11;2249441;79;21040;-59
2022/12/03 05:40:08;;;;;;;101.42;36.42;;;;;;;1.20;100.00;99737.61;2249286;79;21025;-58
2022/12/03 05:43:09;;;;;;;101.53;35.38;;;;;;;1.14;100.00;99737.67;2249559;79;21024;-58
2022/12/03 05:46:11;;;;;;;96.63;33.23;;;;;;;0.94;100.00;99721.03;2249336;79;21033;-58
2022/12/03 05:49:13;;;;;;;93.27;36.42;;;;;;;0.91;100.00;99728.80;2249242;79;21096;-59
2022/12/03 05:52:14;;;;;;;93.80;36.08;;;;;;;0.83;100.00;99731.42;2249264;79;21052;-58
2022/12/03 05:55:16;;;;;;;91.30;35.35;;;;;;;0.80;100.00;99731.45;2249433;79;21582;-58
2022/12/03 05:58:17;;;;;;;95.07;35.23;;;;;;;0.73;100.00;99728.48;2249290;79;21088;-58
2022/12/03 06:01:18;;;;;;;92.22;35.85;;;;;;;0.82;100.00;99738.73;2249684;79;21466;-59
2022/12/03 06:04:20;;;;;;;92.05;34.30;;;;;;;0.82;100.00;99730.58;2249374;79;21009;-59
2022/12/03 06:07:21;;;;;;;88.17;32.53;;;;;;;0.93;100.00;99730.48;2249283;79;21001;-58
2022/12/03 06:10:23;;;;;;;78.78;29.87;;;;;;;1.10;100.00;99723.91;2249540;79;21021;-59
2022/12/03 06:13:24;;;;;;;80.65;29.90;;;;;;;1.22;100.00;99729.40;2249295;79;21001;-58
2022/12/03 06:16:25;;;;;;;81.02;30.50;;;;;;;1.08;100.00;99729.53;2250787;79;21591;-58
2022/12/03 06:19:27;;;;;;;92.22;33.35;;;;;;;0.93;100.00;99721.44;2256264;79;21123;-58
2022/12/03 06:22:29;;;;;;;109.43;42.80;;;;;;;0.88;100.00;99727.51;2256697;79;21579;-58
2022/12/03 06:25:30;;;;;;;81.05;30.45;;;;;;;0.99;100.00;99728.30;2256360;79;21036;-58
2022/12/03 06:28:32;;;;;;;78.70;29.13;;;;;;;1.02;100.00;99727.84;2256170;79;21044;-58
2022/12/03 06:31:33;;;;;;;78.92;30.05;;;;;;;1.06;100.00;99709.73;2256447;79;21036;-59
2022/12/03 06:34:35;;;;;;;82.45;29.65;;;;;;;0.95;100.00;99719.72;2256219;79;21072;-58
2022/12/03 06:37:37;;;;;;;78.17;28.90;;;;;;;1.08;100.00;99722.19;2256722;79;21534;-58
2022/12/03 06:40:38;;;;;;;84.10;29.50;;;;;;;1.12;100.00;99717.42;2256241;79;21275;-58
2022/12/03 06:43:40;;;;;;;82.60;30.57;;;;;;;1.14;100.00;99717.00;2256454;79;21582;-58
2022/12/03 06:46:41;;;;;;;74.10;28.62;;;;;;;1.10;100.00;99717.89;2256332;79;21246;-58
2022/12/03 06:49:43;;;;;;;73.07;28.05;;;;;;;1.01;100.00;99717.53;2256215;79;21044;-58
2022/12/03 06:52:44;;;;;;;73.92;27.87;;;;;;;0.88;100.00;99719.34;2256090;79;21072;-58
2022/12/03 06:55:45;;;;;;;76.10;27.45;;;;;;;0.82;100.00;99723.24;2256202;79;21020;-58
2022/12/03 06:58:47;;;;;;;70.03;27.05;;;;;;;1.04;100.00;99727.84;2255816;79;21008;-58
2022/12/03 07:01:48;;;;;;;70.30;26.93;;;;;;;1.08;100.00;99728.23;2256161;79;20969;-58
2022/12/03 07:04:50;;;;;;;74.58;28.20;;;;;;;1.28;100.00;99735.83;2256186;79;21566;-59
2022/12/03 07:07:54;;;;;;;75.17;29.03;;;;;;;1.44;100.00;99731.38;2256438;79;21024;-58
2022/12/03 07:10:55;;;;;;;70.25;26.95;;;;;;;1.55;100.00;99733.84;2229534;79;21286;-58
2022/12/03 07:13:56;;;;;;;67.97;26.95;;;;;;;1.64;100.00;99732.48;2256389;79;21471;-58
2022/12/03 07:16:58;;;;;;;69.15;27.40;;;;;;;1.68;100.00;99731.99;2256062;79;21076;-59
2022/12/03 07:19:59;;;;;;;72.57;27.80;;;;;;;1.64;100.00;99728.59;2256111;79;21550;-59
2022/12/03 07:23:01;;;;;;;72.20;28.30;;;;;;;1.61;100.00;99718.70;2256375;79;21411;-59
2022/12/03 07:26:02;;;;;;;72.10;25.52;;;;;;;1.72;100.00;99731.09;2256129;79;21067;-58
2022/12/03 07:29:04;;;;;;;71.67;25.97;;;;;;;1.78;100.00;99733.64;2256277;79;21099;-58
2022/12/03 07:32:05;;;;;;;76.67;27.98;;;;;;;1.66;100.00;99725.55;2256171;79;21075;-58
2022/12/03 07:35:06;;;;;;;74.60;26.70;;;;;;;1.61;100.00;99709.23;2256407;79;21032;-58
2022/12/03 07:38:08;;;;;;;70.50;26.70;;;;;;;1.67;100.00;99716.08;2256463;79;21076;-58
2022/12/03 07:41:09;;;;;;;75.95;28.12;;;;;;;1.74;100.00;99721.61;2256546;79;21495;-59
2022/12/03 07:44:11;;;;;;;76.60;28.80;;;;;;;1.77;100.00;99731.04;2256232;79;21037;-58
2022/12/03 07:47:13;;;;;;;69.60;27.17;;;;;;;1.90;100.00;99740.41;2256446;79;21103;-58
2022/12/03 07:50:14;;;;;;;76.10;28.62;;;;;;;2.00;100.00;99739.42;2256148;79;21021;-58
2022/12/03 07:53:17;;;;;;;80.28;29.23;;;;;;;2.06;100.00;99743.22;2255985;79;21056;-58
2022/12/03 07:56:18;;;;;;;73.28;26.97;;;;;;;2.12;100.00;99752.65;2256469;79;21071;-58
2022/12/03 07:59:19;;;;;;;73.83;27.40;;;;;;;2.12;100.00;99748.77;2256339;79;21033;-58
2022/12/03 08:02:21;;;;;;;77.30;30.00;;;;;;;2.23;100.00;99741.73;2256133;79;20989;-59
2022/12/03 08:05:23;;;;;;;79.58;28.17;;;;;;;2.32;100.00;99747.68;2256057;79;21175;-58
2022/12/03 08:08:24;;;;;;;82.60;29.15;;;;;;;2.31;100.00;99747.25;2256120;79;21506;-58
2022/12/03 08:11:26;;;;;;;78.75;28.55;;;;;;;2.33;100.00;99743.77;2256249;79;21012;-58
2022/12/03 08:14:27;;;;;;;81.87;28.25;;;;;;;2.36;100.00;99745.02;2256019;79;21083;-58
2022/12/03 08:17:29;;;;;;;81.12;29.12;;;;;;;2.57;100.00;99746.48;2256085;79;21079;-58
2022/12/03 08:20:30;;;;;;;81.60;29.10;;;;;;;2.55;100.00;99748.22;2256113;79;20964;-58
2022/12/03 08:23:31;;;;;;;86.02;29.90;;;;;;;2.53;100.00;99751.28;2256134;79;21546;-58
2022/12/03 08:26:33;;;;;;;84.52;30.37;;;;;;;2.56;100.00;99755.58;2256118;79;21001;-59
2022/12/03 08:29:34;;;;;;;82.33;29.63;;;;;;;2.62;100.00;99759.37;2256120;79;21508;-58
2022/12/03 08:32:36;;;;;;;87.97;31.50;;;;;;;2.69;100.00;99754.97;2256214;79;21017;-58
2022/12/03 08:35:37;;;;;;;88.80;32.03;;;;;;;2.67;100.00;99754.99;2256102;79;21091;-58
2022/12/03 08:44:45;;;;;;;100.62;34.58;;;;;;;2.52;100.00;99742.24;2229517;79;20980;-58
2022/12/03 08:50:51;;;;;;;91.22;31.60;;;;;;;2.51;100.00;99748.29;2229833;79;21456;-58
2022/12/03 08:53:52;;;;;;;;;;;;;;;2.45;100.00;99735.44;2258922;79;21036;-58
2022/12/03 08:56:54;;;;;;;103.92;33.42;;;;;;;2.49;100.00;99742.28;2256416;79;20138;-59
2022/12/03 08:59:55;;;;;;;105.72;32.80;;;;;;;2.54;100.00;99740.05;2256205;79;21091;-58
2022/12/03 09:06:00;;;;;;;99.77;33.58;;;;;;;2.57;100.00;99754.67;2229637;79;21001;-58
2022/12/03 09:09:01;;;;;;;100.55;32.73;;;;;;;2.60;100.00;99746.44;2256131;79;21048;-58
2022/12/03 09:12:03;;;;;;;104.63;32.98;;;;;;;2.55;100.00;99748.67;2256432;79;21029;-58
2022/12/03 09:15:04;;;;;;;96.08;33.10;;;;;;;2.59;100.00;99744.72;2256289;79;21044;-58
2022/12/03 09:18:06;;;;;;;106.78;34.70;;;;;;;2.75;100.00;99738.88;2252823;79;21060;-58
2022/12/03 09:21:07;;;;;;;110.55;35.43;;;;;;;2.81;100.00;99735.80;2249287;79;21112;-58
2022/12/03 09:24:08;;;;;;;100.35;34.48;;;;;;;2.85;100.00;99734.87;2249582;79;21499;-58
2022/12/03 09:27:10;;;;;;;104.97;33.83;;;;;;;2.71;100.00;99743.68;2249334;79;21025;-58
2022/12/03 09:30:11;;;;;;;111.57;35.92;;;;;;;2.77;100.00;99737.14;2249560;79;21495;-58
2022/12/03 09:33:13;;;;;;;99.60;33.40;;;;;;;2.86;100.00;99736.56;2249662;79;21067;-58
2022/12/03 09:36:14;;;;;;;104.83;33.60;;;;;;;2.87;100.00;99735.69;2249209;79;21104;-58
2022/12/03 09:39:16;;;;;;;96.37;33.87;;;;;;;2.81;100.00;99740.98;2249332;79;21534;-59
2022/12/03 09:42:19;;;;;;;100.30;34.27;;;;;;;2.74;100.00;99734.59;2249281;79;21041;-59
2022/12/03 09:45:21;;;;;;;103.30;34.80;;;;;;;2.73;100.00;99736.76;2220687;79;20949;-58
2022/12/03 09:48:22;;;;;;;103.25;34.98;;;;;;;2.74;100.00;99739.78;2249268;79;21552;-59
2022/12/03 09:51:24;;;;;;;111.15;35.00;;;;;;;2.84;100.00;99744.81;2249276;79;21040;-58
2022/12/03 09:54:25;;;;;;;106.05;36.35;;;;;;;2.85;100.00;99740.05;2249716;79;21416;-58
2022/12/03 09:57:27;;;;;;;112.68;37.30;;;;;;;2.88;100.00;99746.48;2249632;79;20995;-58
2022/12/03 10:00:28;;;;;;;98.42;33.65;;;;;;;2.94;100.00;99748.97;2249339;79;21041;-58
2022/12/03 10:03:30;;;;;;;102.27;34.40;;;;;;;2.91;100.00;99748.57;2249442;79;21128;-58
2022/12/03 10:06:31;;;;;;;99.92;32.90;;;;;;;2.88;100.00;99740.00;2249510;79;21713;-58
2022/12/03 10:09:33;;;;;;;103.02;36.08;;;;;;;2.99;100.00;99734.64;2249537;79;21008;-58
2022/12/03 10:12:34;;;;;;;99.60;34.70;;;;;;;2.94;100.00;99726.95;2249202;79;21049;-58
2022/12/03 10:15:36;;;;;;;103.83;35.80;;;;;;;3.05;100.00;99720.31;2249403;79;21029;-58
2022/12/03 10:18:37;;;;;;;95.45;33.23;;;;;;;3.06;100.00;99724.17;2253156;79;21104;-58
2022/12/03 10:21:39;;;;;;;92.95;32.75;;;;;;;3.23;100.00;99724.33;2256560;79;21479;-58
2022/12/03 10:24:40;;;;;;;94.80;33.42;;;;;;;3.32;100.00;99723.31;2256320;79;21016;-58
2022/12/03 10:27:42;;;;;;;95.77;33.80;;;;;;;3.23;100.00;99728.21;2256516;79;21527;-58
2022/12/03 10:33:46;;;;;;;105.58;34.13;;;;;;;3.15;100.00;99730.95;2229581;79;20981;-58
2022/12/03 10:36:48;;;;;;;97.40;34.05;;;;;;;3.15;100.00;99719.70;2256325;79;21547;-59
2022/12/03 10:39:49;;;;;;;92.85;33.88;;;;;;;3.23;100.00;99725.63;2256424;79;21076;-58
2022/12/03 10:42:51;;;;;;;88.40;32.45;;;;;;;3.45;100.00;99721.78;2256308;79;21026;-58
2022/12/03 10:45:52;;;;;;;92.05;34.30;;;;;;;3.38;100.00;99712.86;2256461;79;21024;-58
2022/12/03 10:48:54;;;;;;;87.80;31.75;;;;;;;3.35;100.00;99716.35;2256191;79;21016;-58
2022/12/03 10:51:56;;;;;;;85.30;33.53;;;;;;;3.34;100.00;99711.19;2256439;79;21060;-58
2022/12/03 10:54:57;;;;;;;99.72;33.95;;;;;;;3.29;100.00;99716.47;2256317;79;21122;-58
2022/12/03 10:57:59;;;;;;;106.53;35.37;;;;;;;3.35;100.00;99716.35;2256527;79;21060;-58
2022/12/03 11:01:00;;;;;;;85.62;32.65;;;;;;;3.29;100.00;99721.66;2256048;79;21068;-58
2022/12/03 11:04:02;;;;;;;98.40;33.97;;;;;;;3.32;100.00;99716.83;2256607;79;21052;-58
2022/12/03 11:10:07;;;;;;;96.67;35.48;;;;;;;3.33;100.00;99715.50;2229464;79;21036;-59
2022/12/03 11:13:08;;;;;;;96.12;35.45;;;;;;;3.33;100.00;99707.72;2255936;79;21056;-58
2022/12/03 11:16:11;;;;;;;98.60;34.03;;;;;;;3.34;100.00;99710.73;2253999;79;20968;-58
2022/12/03 11:19:12;;;;;;;;;;;;;;;3.34;100.00;99708.59;2251789;79;21338;-58
2022/12/03 11:22:15;;;;;;;97.47;35.52;;;;;;;3.45;100.00;99708.81;2248143;79;20420;-58
2022/12/03 11:25:17;;;;;;;98.87;34.83;;;;;;;3.61;100.00;99704.66;2247120;79;21084;-58
2022/12/03 11:28:18;;;;;;;95.17;33.45;;;;;;;3.67;100.00;99706.28;2246461;79;21092;-58
2022/12/03 11:31:20;;;;;;;99.92;32.90;;;;;;;3.56;100.00;99705.17;2247021;79;21051;-59
2022/12/03 11:34:21;;;;;;;96.17;33.33;;;;;;;3.26;100.00;99704.41;2248732;79;21551;-58
2022/12/03 11:37:23;;;;;;;95.67;33.20;;;;;;;3.32;100.00;99699.97;2249299;79;21029;-59
2022/12/03 11:40:25;;;;;;;88.13;32.30;;;;;;;3.32;100.00;99702.14;2249578;79;21607;-58
2022/12/03 11:46:30;;;;;;;91.10;31.33;;;;;;;3.35;100.00;99701.20;2220328;79;20981;-58
2022/12/03 11:49:31;;;;;;;85.97;32.20;;;;;;;3.42;100.00;99698.50;2249572;79;21497;-59
2022/12/03 11:52:34;;;;;;;78.33;28.67;;;;;;;3.46;100.00;99694.98;2249023;79;21020;-58
2022/12/03 11:55:36;;;;;;;;;;;;;;;3.45;100.00;99692.41;2251844;79;21575;-58
2022/12/03 11:58:38;;;;;;;80.10;28.55;;;;;;;3.36;100.00;99689.55;2249222;79;20103;-58
2022/12/03 12:04:45;;;;;;;86.08;28.45;;;;;;;3.49;100.00;99682.36;2220322;79;20957;-58
2022/12/03 12:07:47;;;;;;;70.52;26.05;;;;;;;3.60;100.00;99682.19;2220245;79;20969;-58
2022/12/03 12:10:48;;;;;;;72.78;27.13;;;;;;;3.57;100.00;99686.13;2249266;79;21044;-59
2022/12/03 12:13:50;;;;;;;74.50;25.13;;;;;;;3.67;100.00;99690.72;2249094;79;21019;-59
2022/12/03 12:16:52;;;;;;;69.13;26.20;;;;;;;3.70;100.00;99690.66;2249297;79;20977;-58
2022/12/03 12:19:54;;;;;;;81.12;28.75;;;;;;;3.58;100.00;99696.94;2254399;79;20985;-59
2022/12/03 12:22:56;;;;;;;77.55;29.18;;;;;;;3.50;100.00;99691.02;2255692;79;21032;-58
2022/12/03 12:25:57;;;;;;;71.77;27.32;;;;;;;3.54;100.00;99690.09;2256127;79;20988;-58
2022/12/03 12:28:59;;;;;;;71.60;27.02;;;;;;;3.52;100.00;99695.73;2255914;79;20976;-58
2022/12/03 12:32:00;;;;;;;76.90;28.67;;;;;;;3.43;100.00;99695.45;2256091;79;20984;-58
2022/12/03 12:35:02;;;;;;;83.65;30.48;;;;;;;3.51;100.00;99690.15;2256348;79;21099;-58
2022/12/03 12:38:04;;;;;;;80.05;29.55;;;;;;;3.41;100.00;99689.45;2256090;79;20984;-59
2022/12/03 12:41:05;;;;;;;78.40;30.00;;;;;;;3.38;100.00;99687.77;2256376;79;21507;-58
2022/12/03 12:44:07;;;;;;;81.10;30.52;;;;;;;3.27;100.00;99690.98;2256355;79;21067;-59
2022/12/03 12:47:08;;;;;;;84.00;31.07;;;;;;;3.26;100.00;99684.95;2256345;79;21573;-58
2022/12/03 12:50:10;;;;;;;85.47;32.95;;;;;;;3.23;100.00;99683.72;2256285;79;21095;-58
2022/12/03 12:53:11;;;;;;;94.45;33.40;;;;;;;3.30;100.00;99685.73;2256445;79;21024;-59
2022/12/03 12:56:13;;;;;;;96.33;32.23;;;;;;;3.32;100.00;99692.19;2256851;79;21039;-58
2022/12/03 12:59:14;;;;;;;91.28;32.53;;;;;;;3.26;100.00;99692.73;2256395;79;21056;-59
2022/12/03 13:02:16;;;;;;;95.53;33.63;;;;;;;3.23;100.00;99697.10;2256823;79;21009;-58
2022/12/03 13:05:18;;;;;;;97.85;35.88;;;;;;;3.26;100.00;99694.03;2256518;79;21088;-59
2022/12/03 13:08:19;;;;;;;96.20;34.83;;;;;;;3.21;100.00;99694.53;2256728;79;21029;-59
2022/12/03 13:11:21;;;;;;;91.30;33.85;;;;;;;3.20;100.00;99704.94;2256270;79;21352;-59
2022/12/03 13:17:26;;;;;;;96.67;37.88;;;;;;;3.10;100.00;99705.52;2229592;79;21005;-59
2022/12/03 13:23:30;;;;;;;100.25;34.70;;;;;;;3.03;100.00;99709.09;2229561;79;21020;-59
2022/12/03 13:26:32;;;;;;;89.13;34.23;;;;;;;3.00;100.00;99709.14;2256701;79;20969;-58
2022/12/03 13:29:33;;;;;;;95.77;35.45;;;;;;;3.06;100.00;99703.44;2256318;79;21029;-59
2022/12/03 13:32:35;;;;;;;93.70;33.92;;;;;;;3.17;100.00;99696.77;2256562;79;21504;-58
2022/12/03 13:35:38;;;;;;;82.80;32.78;;;;;;;3.13;100.00;99698.98;2256402;79;21111;-59
2022/12/03 13:38:39;;;;;;;89.60;33.75;;;;;;;3.21;100.00;99698.88;2229644;79;20949;-58
2022/12/03 13:44:44;;;;;;;89.13;33.15;;;;;;;3.33;100.00;99705.13;2229740;79;21519;-58
2022/12/03 13:50:49;;;;;;;90.97;33.88;;;;;;;3.16;100.00;99711.92;2229737;79;20988;-58
2022/12/03 13:53:50;;;;;;;98.22;37.28;;;;;;;3.19;100.00;99709.28;2256775;79;21467;-58
2022/12/03 13:56:52;;;;;;;96.72;36.58;;;;;;;3.23;100.00;99708.34;2256482;79;21049;-58
2022/12/03 13:59:53;;;;;;;88.82;34.25;;;;;;;3.24;100.00;99706.59;2256445;79;21048;-59
2022/12/03 14:05:58;;;;;;;86.65;31.82;;;;;;;3.07;100.00;99699.09;2229339;79;21047;-59
2022/12/03 14:08:59;;;;;;;88.75;33.55;;;;;;;3.05;100.00;99700.42;2256237;79;20941;-59
2022/12/03 14:15:04;;;;;;;90.38;35.20;;;;;;;2.98;100.00;99700.55;2229714;79;21008;-58
2022/12/03 14:18:06;;;;;;;108.60;42.15;;;;;;;3.01;100.00;99705.23;2256161;79;21053;-58
2022/12/03 14:21:07;;;;;;;91.97;33.80;;;;;;;3.09;100.00;99708.56;2249352;79;21100;-59
2022/12/03 14:24:08;;;;;;;89.80;32.42;;;;;;;3.06;100.00;99709.92;2249251;79;21028;-58
2022/12/03 14:27:10;;;;;;;89.95;34.85;;;;;;;3.02;100.00;99708.70;2249483;79;21028;-58
2022/12/03 14:30:11;;;;;;;82.33;31.93;;;;;;;3.05;100.00;99707.35;2249244;79;21045;-59
2022/12/03 14:33:13;;;;;;;86.25;31.97;;;;;;;2.90;100.00;99705.42;2249212;79;21544;-58
2022/12/03 14:36:17;;;;;;;91.87;32.95;;;;;;;2.71;100.00;99706.56;2220723;79;20988;-58
2022/12/03 14:42:22;;;;;;;89.40;33.48;;;;;;;2.56;100.00;99707.20;2246808;79;20086;-59
2022/12/03 14:45:26;;;;;;;94.70;33.00;;;;;;;2.54;100.00;99711.98;2249402;79;21064;-59
2022/12/03 14:48:27;;;;;;;87.33;31.68;;;;;;;2.41;100.00;99713.47;2220478;79;20996;-58
2022/12/03 14:51:28;;;;;;;97.00;32.10;;;;;;;2.45;100.00;99710.38;2249567;79;21040;-58
2022/12/03 14:54:30;;;;;;;83.87;30.90;;;;;;;2.45;100.00;99717.30;2249212;79;20977;-58
2022/12/03 14:57:31;;;;;;;84.65;33.63;;;;;;;2.31;100.00;99709.26;2249215;79;21559;-58
2022/12/03 15:00:35;;;;;;;80.70;32.58;;;;;;;2.29;100.00;99716.66;2249334;79;21013;-58
2022/12/03 15:03:36;;;;;;;87.75;33.65;;;;;;;2.26;100.00;99722.72;2220336;79;21024;-58